Time;durP1;ratioP1;P1;durP2;ratioP2;P2;SDS_P1;SDS_P2;PMS_P1;PMS_P2;Temp;Humidity;BMP_temperature;BMP_pressure;BME280_temperature;BME280_humidity;BME280_pressure;Samples;Min_cycle;Max_cycle;Signal;HPM_P1;HPM_P2
2022/08/04 00:02:06;;;;;;;14.07;8.23;;;;;;;;;;5053514;28;20033;-55
2022/08/04 00:04:37;;;;;;;13.40;7.20;;;;;;;;;;5052996;28;20028;-55
2022/08/04 00:07:07;;;;;;;18.58;8.60;;;;;;;;;;5053204;28;20070;-53
2022/08/04 00:09:33;;;;;;;13.48;8.43;;;;;;;;;;5053123;28;20461;-53
2022/08/04 00:12:01;;;;;;;19.48;8.90;;;;;;;;;;5053105;28;20035;-53
2022/08/04 00:14:30;;;;;;;14.25;8.18;;;;;;;;;;5052044;28;20434;-50
2022/08/04 00:16:56;;;;;;;18.17;8.85;;;;;;;;;;5052855;28;20102;-53
2022/08/04 00:19:51;;;;;;;21.75;8.27;;;;;;;;;;5053258;28;20032;-55
2022/08/04 00:22:22;;;;;;;19.15;9.15;;;;;;;;;;5044528;28;20040;-55
2022/08/04 00:24:48;;;;;;;11.95;8.85;;;;;;;;;;5068208;28;20025;-57
2022/08/04 00:27:15;;;;;;;21.08;9.35;;;;;;;;;;5052751;28;20116;-53
2022/08/04 00:29:41;;;;;;;13.77;9.20;;;;;;;;;;5052915;28;20024;-57
2022/08/04 00:32:07;;;;;;;19.98;9.60;;;;;;;;;;5052866;28;20104;-56
2022/08/04 00:34:34;;;;;;;15.13;9.77;;;;;;;;;;5052873;28;20657;-54
2022/08/04 00:37:00;;;;;;;29.17;11.10;;;;;;;;;;5052517;28;20033;-56
2022/08/04 00:39:26;;;;;;;21.35;11.25;;;;;;;;;;5052841;28;20047;-57
2022/08/04 00:41:52;;;;;;;17.52;10.77;;;30.20;49.50;;;;;;5052140;28;20035;-56
2022/08/04 00:44:29;;;;;;;20.50;10.13;;;27.50;56.90;;;;;;5052420;28;20025;-55
2022/08/04 00:47:18;;;;;;;18.02;10.23;;;27.30;57.10;;;;;;5041845;28;20036;-57
2022/08/04 00:49:59;;;;;;;14.65;9.80;;;27.20;57.00;;;;;;5046897;28;20068;-55
2022/08/04 00:52:25;;;;;;;16.70;9.95;;;27.30;57.00;;;;;;5052442;28;20104;-56
2022/08/04 00:55:02;;;;;;;15.60;11.70;;;27.30;56.90;;;;;;5052544;28;20136;-55
2022/08/04 00:57:52;;;;;;;11.60;9.10;;;27.30;56.90;;;;;;5051781;28;20035;-56
2022/08/04 01:00:19;;;;;;;15.75;10.10;;;27.30;56.90;;;;;;5052204;28;20513;-55
2022/08/04 01:02:47;;;;;;;14.55;10.52;;;27.20;56.70;;;;;;5051808;28;20395;-56
2022/08/04 01:05:28;;;;;;;13.93;9.90;;;27.20;56.80;;;;;;5067123;28;20040;-56
2022/08/04 01:08:44;;;;;;;16.55;8.88;;;27.30;57.00;;;;;;5051931;28;20483;-55
2022/08/04 01:11:23;;;;;;;12.93;10.25;;;27.20;57.00;;;;;;5048077;28;20503;-56
2022/08/04 01:13:51;;;;;;;14.40;9.60;;;27.10;56.90;;;;;;5067207;28;20037;-56
2022/08/04 01:16:22;;;;;;;13.32;10.15;;;27.10;57.20;;;;;;5051859;28;20040;-55
2022/08/04 01:19:02;;;;;;;12.65;9.88;;;27.10;57.50;;;;;;5052170;28;20041;-52
2022/08/04 01:21:46;;;;;;;12.05;9.57;;;27.10;57.70;;;;;;5051672;28;20024;-56
2022/08/04 01:24:36;;;;;;;17.77;10.80;;;27.10;58.20;;;;;;5051720;28;20107;-56
2022/08/04 01:27:23;;;;;;;13.93;9.43;;;27.00;58.10;;;;;;5051634;28;20032;-54
2022/08/04 01:29:54;;;;;;;10.00;9.00;;;27.00;59.00;;;;;;5051393;28;20041;-58
2022/08/04 01:32:24;;;;;;;38.40;10.05;;;27.00;58.80;;;;;;5050457;28;20021;-56
2022/08/04 01:35:03;;;;;;;12.05;8.45;;;26.90;57.90;;;;;;5051480;28;20025;-57
2022/08/04 01:38:06;;;;;;;12.80;8.82;;;27.00;57.80;;;;;;5051861;28;20155;-58
2022/08/04 01:40:36;;;;;;;11.18;9.77;;;27.00;57.90;;;;;;5039607;28;20029;-58
2022/08/04 01:43:03;;;;;;;14.75;9.43;;;26.90;57.60;;;;;;5066960;28;20023;-58
2022/08/04 01:45:30;;;;;;;11.52;9.25;;;26.90;57.80;;;;;;5051636;28;20037;-58
2022/08/04 01:47:56;;;;;;;;;;;26.90;57.70;;;;;;5051932;28;20067;-57
2022/08/04 01:50:22;;;;;;;17.83;9.75;;;26.90;57.60;;;;;;5052110;28;19904;-54
2022/08/04 01:52:52;;;;;;;11.77;8.75;;;26.90;57.40;;;;;;5050883;28;20103;-52
2022/08/04 01:55:18;;;;;;;12.60;9.30;;;26.90;57.40;;;;;;5051780;28;20033;-55
2022/08/04 01:57:49;;;;;;;14.47;9.43;;;26.90;57.30;;;;;;5051181;28;20064;-53
2022/08/04 02:00:18;;;;;;;11.52;8.93;;;26.90;57.00;;;;;;5051329;28;20268;-54
2022/08/04 02:02:45;;;;;;;14.43;10.07;;;26.90;57.00;;;;;;5051025;28;20071;-56
2022/08/04 02:05:15;;;;;;;15.73;10.23;;;26.90;57.00;;;;;;5051198;28;20071;-54
2022/08/04 02:07:59;;;;;;;12.48;8.98;;;26.90;57.10;;;;;;5051179;28;20098;-56
2022/08/04 02:10:49;;;;;;;13.10;10.15;;;26.90;57.10;;;;;;5051345;28;20021;-52
2022/08/04 02:13:24;;;;;;;15.00;10.65;;;26.90;57.10;;;;;;5050976;28;20466;-53
2022/08/04 02:16:08;;;;;;;14.63;9.73;;;26.90;57.20;;;;;;5051261;28;20090;-54
2022/08/04 02:19:00;;;;;;;10.68;9.02;;;26.90;57.40;;;;;;5066597;28;20125;-56
2022/08/04 02:21:28;;;;;;;17.10;9.27;;;26.90;57.40;;;;;;5028448;28;20072;-53
2022/08/04 02:24:05;;;;;;;21.50;10.30;;;26.80;57.10;;;;;;5053994;28;20383;-54
2022/08/04 02:26:32;;;;;;;21.25;10.07;;;26.80;57.00;;;;;;5054954;28;20041;-51
2022/08/04 02:29:24;;;;;;;16.25;9.35;;;26.80;56.80;;;;;;5070761;28;20029;-52
2022/08/04 02:31:56;;;;;;;12.38;10.73;;;26.80;57.00;;;;;;5055226;28;20064;-52
2022/08/04 02:34:46;;;;;;;11.35;9.50;;;26.70;56.80;;;;;;5054784;28;20505;-52
2022/08/04 02:37:15;;;;;;;11.27;9.77;;;26.70;56.90;;;;;;5057908;28;20490;-55
2022/08/04 02:39:43;;;;;;;13.38;10.15;;;26.70;57.10;;;;;;5053978;28;20136;-56
2022/08/04 02:42:11;;;;;;;12.88;9.93;;;26.70;57.30;;;;;;5054130;28;20017;-55
2022/08/04 02:44:39;;;;;;;11.88;10.65;;;;;;;;;;5070103;28;20041;-53
2022/08/04 02:47:05;;;;;;;13.32;10.07;;;;;;;;;;5054756;28;20070;-57
2022/08/04 02:49:31;;;;;;;;;;;;;;;;;;5055146;28;20108;-56
2022/08/04 02:51:57;;;;;;;17.77;11.13;;;26.60;57.30;;;;;;5054040;28;20015;-55
2022/08/04 02:54:36;;;;;;;12.80;10.40;;;26.50;58.20;;;;;;5054381;28;20099;-55
2022/08/04 02:57:05;;;;;;;13.35;10.00;;;26.40;58.60;;;;;;5054661;28;20033;-57
2022/08/04 02:59:49;;;;;;;11.02;9.48;;;26.40;58.60;;;;;;5053839;28;21301;-55
2022/08/04 03:02:19;;;;;;;15.63;9.85;;;26.40;58.80;;;;;;5054600;28;20029;-57
2022/08/04 03:04:59;;;;;;;12.90;10.23;;;26.40;58.90;;;;;;5054452;28;20025;-57
2022/08/04 03:08:00;;;;;;;10.73;9.32;;;26.40;58.90;;;;;;5054267;28;20486;-55
2022/08/04 03:10:57;;;;;;;12.95;9.60;;;26.40;58.80;;;;;;5054737;28;20086;-58
2022/08/04 03:13:36;;;;;;;12.77;9.85;;;26.40;58.80;;;;;;5053941;28;20083;-55
2022/08/04 03:16:40;;;;;;;12.40;9.77;;;26.40;59.10;;;;;;5068678;28;20041;-54
2022/08/04 03:19:21;;;;;;;13.10;9.20;;;26.40;59.20;;;;;;5054397;28;20116;-55
2022/08/04 03:22:24;;;;;;;12.55;8.90;;;26.40;58.80;;;;;;5054442;28;20106;-56
2022/08/04 03:25:22;;;;;;;13.52;10.77;;;26.30;58.70;;;;;;5041479;28;20051;-54
2022/08/04 03:28:28;;;;;;;15.60;11.13;;;26.30;58.80;;;;;;5054177;28;20029;-55
2022/08/04 03:31:13;;;;;;;14.75;10.52;;;;;;;;;;5054049;28;20479;-55
2022/08/04 03:33:39;;;;;;;11.73;10.52;;;;;;;;;;5053727;28;20029;-56
2022/08/04 03:36:24;;;;;;;13.63;10.77;;;;;;;;;;5053298;28;20036;-56
2022/08/04 03:39:02;;;;;;;12.57;11.20;;;;;;;;;;5053315;28;20056;-57
2022/08/04 03:41:46;;;;;;;13.00;11.15;;;;;;;;;;5052054;28;20021;-56
2022/08/04 03:44:24;;;;;;;15.82;11.25;;;;;;;;;;5040048;28;20467;-57
2022/08/04 03:47:13;;;;;;;14.82;11.93;;;;;;;;;;5053918;28;20029;-56
2022/08/04 03:49:45;;;;;;;20.15;11.68;;;;;;;;;;5053209;28;20043;-54
2022/08/04 03:55:26;;;;;;;13.65;11.82;;;;;;;;;;5052381;28;20043;-57
2022/08/04 03:57:52;;;;;;;13.55;11.25;;;;;;;;;;5053483;28;20029;-55
2022/08/04 04:00:19;;;;;;;15.90;10.87;;;;;;;;;;5053051;28;20021;-56
2022/08/04 04:03:05;;;;;;;19.92;11.57;;;;;;;;;;5053626;28;20052;-56
2022/08/04 04:05:31;;;;;;;15.40;11.77;;;;;;;;;;5053695;28;20106;-56
2022/08/04 04:08:03;;;;;;;13.95;12.05;;;;;;;;;;5053731;28;20028;-57
2022/08/04 04:10:34;;;;;;;17.05;11.10;;;;;;;;;;5053310;28;20094;-56
2022/08/04 04:13:15;;;;;;;13.02;11.20;;;;;;;;;;5053234;28;20450;-57
2022/08/04 04:16:00;;;;;;;12.93;11.65;;;;;;;;;;5052158;28;20032;-54
2022/08/04 04:18:49;;;;;;;14.20;11.15;;;;;;;;;;5053131;28;20025;-55
2022/08/04 04:21:21;;;;;;;14.63;11.90;;;;;;;;;;5043021;28;20040;-54
2022/08/04 04:23:50;;;;;;;15.65;12.85;;;;;;;;;;5051963;28;20502;-55
2022/08/04 04:26:34;;;;;;;19.35;12.13;;;;;;;;;;5053049;28;20028;-54
2022/08/04 04:29:06;;;;;;;14.60;11.90;;;;;;;;;;5053050;28;20029;-55
2022/08/04 04:31:38;;;;;;;19.35;12.35;;;;;;;;;;5053191;28;20033;-54
2022/08/04 04:34:14;;;;;;;23.55;13.20;;;;;;;;;;5052915;28;20017;-56
2022/08/04 04:36:57;;;;;;;14.98;12.45;;;;;;;;;;5052938;28;20028;-54
2022/08/04 04:39:32;;;;;;;14.93;11.93;;;;;;;;;;5052885;28;20021;-54
2022/08/04 04:42:01;;;;;;;15.52;12.05;;;;;;;;;;5051616;28;20053;-56
2022/08/04 04:44:30;;;;;;;14.80;12.13;;;;;;;;;;5052795;28;20044;-53
2022/08/04 04:46:56;;;;;;;18.38;13.45;;;;;;;;;;5052714;28;20025;-57
2022/08/04 04:49:34;;;;;;;19.97;12.47;;;;;;;;;;5052811;28;20373;-57
2022/08/04 04:52:00;;;;;;;21.45;12.85;;;;;;;;;;5052726;28;20395;-55
2022/08/04 04:54:45;;;;;;;22.60;12.80;;;;;;;;;;5053127;28;20032;-55
2022/08/04 04:57:14;;;;;;;21.20;13.55;;;;;;;;;;5052421;28;20039;-57
2022/08/04 04:59:47;;;;;;;14.43;12.95;;;;;;;;;;5052613;28;20560;-56
2022/08/04 05:02:24;;;;;;;17.17;12.63;;;;;;;;;;5052523;28;20483;-54
2022/08/04 05:04:56;;;;;;;15.30;12.15;;;;;;;;;;5052717;28;20455;-55
2022/08/04 05:07:38;;;;;;;20.92;12.95;;;;;;;;;;5052316;28;20056;-55
2022/08/04 05:10:04;;;;;;;17.30;13.68;;;;;;;;;;5052476;28;20027;-53
2022/08/04 05:12:31;;;;;;;14.90;11.32;;;;;;;;;;5052365;28;20024;-56
2022/08/04 05:14:58;;;;;;;14.98;12.18;;;;;;;;;;5052132;28;20021;-55
2022/08/04 05:17:23;;;;;;;;;;;;;;;;;;5052593;28;20101;-57
2022/08/04 05:19:59;;;;;;;14.18;11.38;;;;;;;;;;5052314;28;19987;-57
2022/08/04 05:22:30;;;;;;;15.88;11.85;;;;;;;;;;5052208;28;20080;-55
2022/08/04 05:25:18;;;;;;;16.23;11.95;;;;;;;;;;5052194;28;20017;-57
2022/08/04 05:27:48;;;;;;;16.33;12.15;;;;;;;;;;5051959;28;20032;-52
2022/08/04 05:30:14;;;;;;;15.50;10.93;;;;;;;;;;5052099;28;20025;-54
2022/08/04 05:32:55;;;;;;;15.70;10.77;;;;;;;;;;5052016;28;20029;-54
2022/08/04 05:35:27;;;;;;;14.35;12.25;;;;;;;;;;5052052;28;20032;-54
2022/08/04 05:37:54;;;;;;;13.95;12.30;;;;;;;;;;5051732;28;20029;-56
2022/08/04 05:40:21;;;;;;;17.65;12.30;;;;;;;;;;5049906;28;20436;-55
2022/08/04 05:42:48;;;;;;;14.88;11.82;;;;;;;;;;5051547;28;20554;-54
2022/08/04 05:45:14;;;;;;;15.77;11.77;;;;;;;;;;5051827;28;20021;-53
2022/08/04 05:47:42;;;;;;;16.35;10.55;;;;;;;;;;5051616;28;20029;-55
2022/08/04 05:50:08;;;;;;;13.00;11.13;;;;;;;;;;5050700;28;20025;-56
2022/08/04 05:52:36;;;;;;;16.25;11.18;;;;;;;;;;5051468;28;20029;-56
2022/08/04 05:55:02;;;;;;;16.08;10.75;;;;;;;;;;5051768;28;20036;-57
2022/08/04 05:57:29;;;;;;;20.13;11.57;;;;;;;;;;5051022;28;20387;-55
2022/08/04 05:59:57;;;;;;;16.13;10.13;;;;;;;;;;5051609;28;20086;-52
2022/08/04 06:02:23;;;;;;;12.70;9.15;;;;;;;;;;5066921;28;20483;-54
2022/08/04 06:04:50;;;;;;;11.77;10.57;;;;;;;;;;5051450;28;20032;-54
2022/08/04 06:07:17;;;;;;;14.55;10.32;;;;;;;;;;5051594;28;20450;-55
2022/08/04 06:09:43;;;;;;;;;;;;;;;;;;5052058;28;20056;-56
2022/08/04 06:12:18;;;;;;;10.40;8.68;;;;;;;;;;5051497;28;19912;-55
2022/08/04 06:14:46;;;;;;;10.00;8.77;;;;;;;;;;5051550;28;20040;-55
2022/08/04 06:17:29;;;;;;;11.30;9.32;;;26.30;59.10;;;;;;5051141;28;20021;-53
2022/08/04 06:19:56;;;;;;;9.93;8.98;;;;;;;;;;5051486;28;20025;-55
2022/08/04 06:22:22;;;;;;;;;;;;;;;;;;5051819;28;20048;-57
2022/08/04 06:24:50;;;;;;;13.18;8.30;;;;;;;;;;5051408;28;19936;-57
2022/08/04 06:27:17;;;;;;;8.75;7.35;;;;;;;;;;5051247;28;20075;-55
2022/08/04 06:29:44;;;;;;;11.35;7.47;;;;;;;;;;5051250;28;20025;-54
2022/08/04 06:32:12;;;;;;;9.90;7.72;;;;;;;;;;5051375;28;20481;-56
2022/08/04 06:34:39;;;;;;;9.73;8.05;;;;;;;;;;5051175;28;20108;-55
2022/08/04 06:37:06;;;;;;;11.55;7.95;;;;;;;;;;5051244;28;20074;-54
2022/08/04 06:39:33;;;;;;;9.23;7.53;;;;;;;;;;5051167;28;20391;-57
2022/08/04 06:42:00;;;;;;;11.32;7.70;;;;;;;;;;5051226;28;20021;-54
2022/08/04 06:44:27;;;;;;;8.52;7.18;;;;;;;;;;5050918;28;20403;-55
2022/08/04 06:46:54;;;;;;;9.48;7.75;;;;;;;;;;5050986;28;20032;-52
2022/08/04 06:49:21;;;;;;;;;;;;;;;;;;5051535;28;20025;-56
2022/08/04 06:51:47;;;;;;;9.50;8.07;;;;;;;;;;5051190;28;19904;-55
2022/08/04 06:54:14;;;;;;;11.20;7.85;;;;;;;;;;5050961;28;20044;-55
2022/08/04 06:56:43;;;;;;;10.52;7.90;;;;;;;;;;5050914;28;20490;-52
2022/08/04 06:59:10;;;;;;;12.13;6.65;;;;;;;;;;5051020;28;20513;-56
2022/08/04 07:01:36;;;;;;;9.02;7.00;;;;;;;;;;5051030;28;20029;-55
2022/08/04 07:04:03;;;;;;;11.82;6.20;;;;;;;;;;5050944;28;20029;-54
2022/08/04 07:06:29;;;;;;;9.02;7.20;;;;;;;;;;5051184;28;20021;-57
2022/08/04 07:08:55;;;;;;;15.63;6.32;;;;;;;;;;5050975;28;20052;-56
2022/08/04 07:11:21;;;;;;;10.55;6.07;;;;;;;;;;5054081;28;20021;-55
2022/08/04 07:13:49;;;;;;;10.93;5.40;;;;;;;;;;5054558;28;20035;-56
2022/08/04 07:16:15;;;;;;;7.63;5.25;;;;;;;;;;5054399;28;20021;-53
2022/08/04 07:18:41;;;;;;;;;;;;;;;;;;5055019;28;20491;-55
2022/08/04 07:21:07;;;;;;;11.98;5.78;;;;;;;;;;5054669;28;19951;-55
2022/08/04 07:23:34;;;;;;;8.85;6.05;;;;;;;;;;5069790;28;20071;-54
2022/08/04 07:26:00;;;;;;;12.90;5.38;;;;;;;;;;5054342;28;20033;-55
2022/08/04 07:28:27;;;;;;;16.58;6.15;;;;;;;;;;5054370;28;20032;-50
2022/08/04 07:30:54;;;;;;;11.95;5.70;;;;;;;;;;5054405;28;20481;-51
2022/08/04 07:33:20;;;;;;;8.10;5.55;;;;;;;;;;5054513;28;20025;-50
2022/08/04 07:35:49;;;;;;;11.35;5.63;;;;;;;;;;5054341;28;20107;-49
2022/08/04 07:38:15;;;;;;;11.55;5.32;;;;;;;;;;5069437;28;20070;-50
2022/08/04 07:40:41;;;;;;;10.18;5.05;;;;;;;;;;5054051;28;20025;-50
2022/08/04 07:43:08;;;;;;;9.85;4.70;;;;;;;;;;5054042;28;20021;-51
2022/08/04 07:45:34;;;;;;;15.55;5.47;;;;;;;;;;5054048;28;20089;-51
2022/08/04 07:48:02;;;;;;;7.90;4.30;;;;;;;;;;5053820;28;20025;-54
2022/08/04 07:50:29;;;;;;;9.50;4.47;;;;;;;;;;5054376;28;20036;-54
2022/08/04 07:52:55;;;;;;;8.77;3.80;;;;;;;;;;5053796;28;20032;-53
2022/08/04 07:55:21;;;;;;;5.68;2.50;;;;;;;;;;5053696;28;20251;-53
2022/08/04 07:57:47;;;;;;;8.43;3.35;;;;;;;;;;5053728;28;20044;-53
2022/08/04 08:00:14;;;;;;;12.18;3.70;;;;;;;;;;5053996;28;20021;-51
2022/08/04 08:02:41;;;;;;;8.52;3.38;;;;;;;;;;5053696;28;20112;-51
2022/08/04 08:05:12;;;;;;;11.10;2.80;;;;;;;;;;5053708;28;20502;-51
2022/08/04 08:07:38;;;;;;;7.53;3.20;;;;;;;;;;5053461;28;20021;-56
2022/08/04 08:10:05;;;;;;;6.88;2.95;;;;;;;;;;5053517;28;20537;-54
2022/08/04 08:12:31;;;;;;;8.88;2.38;;;;;;;;;;5053487;28;20482;-51
2022/08/04 08:14:58;;;;;;;4.97;2.72;;;;;;;;;;5052443;28;20368;-52
2022/08/04 08:17:24;;;;;;;12.20;3.10;;;;;;;;;;5053416;28;20037;-53
2022/08/04 08:19:50;;;;;;;6.60;2.95;;;;;;;;;;5053476;28;20493;-53
2022/08/04 08:22:16;;;;;;;5.05;2.65;;;;;;;;;;5052822;28;20491;-54
2022/08/04 08:24:42;;;;;;;2.90;2.60;;;;;;;;;;5053211;28;20025;-52
2022/08/04 08:27:08;;;;;;;10.57;2.92;;;;;;;;;;5053204;28;20449;-52
2022/08/04 08:29:35;;;;;;;5.10;2.70;;;;;;;;;;5053248;28;20081;-56
2022/08/04 08:32:01;;;;;;;;;;;;;;;;;;5053701;28;20029;-52
2022/08/04 08:34:27;;;;;;;9.43;3.20;;;;;;;;;;5053538;28;19912;-53
2022/08/04 08:36:58;;;;;;;14.43;3.65;;;;;;;;;;5052732;28;20032;-53
2022/08/04 08:39:38;;;;;;;6.63;2.80;;;;;;;;;;5053013;28;20031;-55
2022/08/04 08:42:23;;;;;;;8.10;3.30;;;;;;;;;;5053095;28;20021;-51
2022/08/04 08:44:52;;;;;;;5.95;2.88;;;;;;;;;;5052931;28;20386;-56
2022/08/04 08:47:34;;;;;;;4.40;2.88;;;;;;;;;;5052586;28;20032;-54
2022/08/04 08:50:00;;;;;;;5.40;2.80;;;;;;;;;;5052857;28;20506;-54
2022/08/04 08:53:02;;;;;;;7.75;3.08;;;;;;;;;;5052647;28;20024;-52
2022/08/04 08:55:40;;;;;;;7.15;2.20;;;;;;;;;;5010622;28;20045;-53
2022/08/04 08:58:20;;;;;;;5.60;2.35;;;;;;;;;;5047663;28;20538;-53
2022/08/04 09:00:46;;;;;;;7.38;2.85;;;;;;;;;;5052665;28;20021;-52
2022/08/04 09:03:12;;;;;;;8.73;2.65;;;;;;;;;;5052554;28;20041;-51
2022/08/04 09:05:57;;;;;;;7.90;2.83;;;;;;;;;;5052622;28;20036;-51
2022/08/04 09:08:29;;;;;;;8.20;2.47;;;;;;;;;;5067680;28;20387;-53
2022/08/04 09:10:59;;;;;;;7.40;2.58;;;;;;;;;;5052517;28;20138;-53
2022/08/04 09:13:51;;;;;;;5.78;2.17;;;;;;;;;;5052359;28;20400;-54
2022/08/04 09:16:20;;;;;;;4.75;2.08;;;;;;;;;;5050213;28;20125;-54
2022/08/04 09:18:52;;;;;;;3.03;1.83;;;;;;;;;;5052282;28;20096;-53
2022/08/04 09:21:21;;;;;;;11.52;2.35;;;;;;;;;;5052285;28;20027;-53
2022/08/04 09:24:06;;;;;;;5.75;1.80;;;;;;;;;;5052138;28;20595;-55
2022/08/04 09:26:34;;;;;;;1.80;1.30;;;;;;;;;;5052064;28;20032;-53
2022/08/04 09:29:21;;;;;;;3.63;1.35;;;;;;;;;;5051982;28;20024;-51
2022/08/04 09:32:01;;;;;;;4.10;1.42;;;;;;;;;;5051915;28;20411;-54
2022/08/04 09:34:32;;;;;;;5.40;1.60;;;;;;;;;;5051819;28;20036;-52
2022/08/04 09:37:11;;;;;;;2.75;1.52;;;;;;;;;;5051845;28;20029;-55
2022/08/04 09:40:10;;;;;;;1.42;1.27;;;;;;;;;;5051929;28;20080;-54
2022/08/04 09:42:39;;;;;;;4.47;1.30;;;;;;;;;;5029043;28;20044;-52
2022/08/04 09:45:31;;;;;;;3.05;1.30;;;;;;;;;;5051863;28;20079;-50
2022/08/04 09:48:09;;;;;;;1.67;1.17;;;;;;;;;;5049448;28;20037;-52
2022/08/04 09:50:39;;;;;;;3.28;1.13;;;;;;;;;;5051926;28;20017;-51
2022/08/04 09:53:11;;;;;;;2.97;1.70;;;;;;;;;;5051594;28;20029;-51
2022/08/04 09:55:46;;;;;;;3.88;1.60;;;;;;;;;;5051623;28;20025;-51
2022/08/04 09:58:32;;;;;;;2.10;1.33;;;;;;;;;;5051409;28;20024;-55
2022/08/04 10:01:03;;;;;;;3.92;0.98;;;;;;;;;;5051875;28;20459;-54
2022/08/04 10:03:33;;;;;;;3.35;1.05;;;;;;;;;;5051496;28;20474;-52
2022/08/04 10:05:59;;;;;;;7.55;1.20;;;;;;;;;;5051663;28;20063;-55
2022/08/04 10:08:37;;;;;;;5.18;1.35;;;;;;;;;;5051460;28;20395;-56
2022/08/04 10:11:03;;;;;;;1.23;0.98;;;;;;;;;;5051794;28;20489;-55
2022/08/04 10:13:38;;;;;;;1.85;1.20;;;;;;;;;;5051363;28;20025;-54
2022/08/04 10:16:24;;;;;;;3.22;1.10;;;;;;;;;;5051575;28;20036;-51
2022/08/04 10:19:00;;;;;;;3.03;1.20;;;;;;;;;;5051514;28;20436;-58
2022/08/04 10:21:30;;;;;;;4.05;1.25;;;;;;;;;;5051760;28;20056;-51
2022/08/04 10:23:57;;;;;;;6.35;1.10;;;;;;;;;;5051387;28;20028;-51
2022/08/04 10:26:38;;;;;;;4.50;1.35;;;;;;;;;;5051259;28;20192;-55
2022/08/04 10:29:16;;;;;;;9.45;1.38;;;;;;;;;;5051362;28;20025;-52
2022/08/04 10:31:54;;;;;;;1.85;1.05;;;;;;;;;;5051374;28;20036;-53
2022/08/04 10:34:21;;;;;;;7.97;1.25;;;;;;;;;;5051242;28;20025;-52
2022/08/04 10:37:00;;;;;;;4.68;1.40;;;;;;;;;;5050907;28;20495;-55
2022/08/04 10:39:37;;;;;;;1.58;1.20;;;;;;;;;;5051148;28;20021;-54
2022/08/04 10:42:03;;;;;;;;;;;;;;;;;;5051012;28;20048;-54
2022/08/04 10:44:37;;;;;;;2.20;0.90;;;;;;;;;;5051617;28;20371;-54
2022/08/04 10:47:07;;;;;;;3.00;0.95;;;;;;;;;;5046238;28;20036;-55
2022/08/04 10:49:42;;;;;;;7.95;1.00;;;;;;;;;;5054627;28;20479;-53
2022/08/04 10:52:10;;;;;;;2.22;1.27;;;;;;;;;;5035155;28;20037;-53
2022/08/04 10:54:47;;;;;;;3.22;1.05;;;;;;;;;;5034172;28;20175;-53
2022/08/04 10:57:13;;;;;;;3.80;1.17;;;;;;;;;;5049197;28;20070;-56
2022/08/04 10:59:45;;;;;;;4.05;1.30;;;;;;;;;;5054758;28;20114;-53
2022/08/04 11:02:26;;;;;;;2.63;0.80;;;;;;;;;;5035057;28;20029;-52
2022/08/04 11:05:18;;;;;;;2.35;1.27;;;;;;;;;;5040419;28;20033;-53
2022/08/04 11:07:46;;;;;;;1.63;1.00;;;;;;;;;;5051711;28;20041;-53
2022/08/04 11:10:12;;;;;;;1.35;1.00;;;;;;;;;;5053272;28;20101;-54
2022/08/04 11:12:38;;;;;;;;;;;;;;;;;;5069458;28;20033;-53
2022/08/04 11:15:07;;;;;;;3.92;1.08;;;;;;;;;;5039148;28;19908;-53
2022/08/04 11:17:46;;;;;;;5.30;1.35;;;;;;;;;;5050146;28;20025;-55
2022/08/04 11:20:23;;;;;;;3.25;1.23;;;;;;;;;;5049401;28;20033;-54
2022/08/04 11:22:49;;;;;;;;;;;;;;;;;;5046373;28;20092;-53
2022/08/04 11:25:20;;;;;;;3.95;1.23;;;;;;;;;;5051867;28;20002;-56
2022/08/04 11:27:49;;;;;;;1.95;0.98;;;;;;;;;;5048389;28;20021;-55
2022/08/04 11:30:16;;;;;;;9.15;1.10;;;;;;;;;;5053971;28;20028;-52
2022/08/04 11:32:42;;;;;;;1.50;1.20;;;;;;;;;;5038875;28;20049;-54
2022/08/04 11:35:11;;;;;;;1.45;1.00;;;;;;;;;;5052227;28;20029;-53
2022/08/04 11:38:01;;;;;;;4.47;1.33;;;;;;;;;;5053993;28;20048;-54
2022/08/04 11:40:28;;;;;;;1.50;1.02;;;;;;;;;;5052861;28;20130;-52
2022/08/04 11:42:56;;;;;;;2.38;1.05;;;;;;;;;;5052751;28;20075;-52
2022/08/04 11:45:36;;;;;;;3.75;0.98;;;;;;;;;;5053245;28;20034;-52
2022/08/04 11:48:09;;;;;;;7.28;1.40;;;;;;;;;;5053147;28;20383;-53
2022/08/04 11:50:40;;;;;;;1.65;0.93;;;;;;;;;;5053997;28;20506;-54
2022/08/04 11:53:06;;;;;;;3.80;1.17;;;;;;;;;;5053758;28;20086;-52
2022/08/04 11:55:33;;;;;;;1.73;1.08;;;;;;;;;;5052525;28;20075;-55
2022/08/04 11:57:59;;;;;;;8.30;1.20;;;;;;;;;;5069233;28;20112;-54
2022/08/04 12:00:27;;;;;;;7.18;1.17;;;;;;;;;;5053871;28;20398;-53
2022/08/04 12:03:14;;;;;;;4.93;1.20;;;;;;;;;;5053403;28;20032;-54
2022/08/04 12:05:52;;;;;;;3.22;0.85;;;;;;;;;;5053731;28;20033;-54
2022/08/04 12:08:27;;;;;;;5.57;1.50;;;;;;;;;;5053400;28;20033;-51
2022/08/04 12:11:15;;;;;;;2.75;1.55;;;;;;;;;;5053634;28;20499;-54
2022/08/04 12:13:56;;;;;;;1.35;1.00;;;;;;;;;;5053203;28;20037;-56
2022/08/04 12:16:25;;;;;;;2.67;1.00;;;;;;;;;;5053029;28;20036;-55
2022/08/04 12:18:56;;;;;;;1.75;1.20;;;;;;;;;;5053123;28;20029;-55
2022/08/04 12:21:25;;;;;;;1.17;0.95;;;;;;;;;;5053495;28;20116;-51
2022/08/04 12:23:53;;;;;;;2.92;1.70;;;;;;;;;;5053007;28;20487;-54
2022/08/04 12:26:24;;;;;;;3.25;1.30;;;;;;;;;;5053125;28;20052;-55
2022/08/04 12:28:55;;;;;;;4.65;1.15;;;;;;;;;;5052850;28;20040;-56
2022/08/04 12:31:34;;;;;;;1.77;1.10;;;;;;;;;;5053050;28;20032;-54
2022/08/04 12:34:06;;;;;;;8.30;1.48;;;;;;;;;;5053039;28;20399;-54
2022/08/04 12:36:38;;;;;;;2.05;1.20;;;;;;;;;;5052913;28;20107;-54
2022/08/04 12:39:24;;;;;;;2.67;1.17;;;;;;;;;;5053162;28;20113;-56
2022/08/04 12:41:57;;;;;;;6.95;1.33;;;;;;;;;;5052763;28;20079;-52
2022/08/04 12:44:23;;;;;;;2.35;0.90;;;;;;;;;;5053169;28;20032;-55
2022/08/04 12:46:49;;;;;;;9.65;2.60;;;;;;;;;;5052938;28;20029;-54
2022/08/04 12:49:16;;;;;;;2.33;1.10;;;;;;;;;;5067978;28;20120;-55
2022/08/04 12:51:43;;;;;;;7.10;1.15;;;;;;;;;;5052447;28;20039;-53
2022/08/04 12:54:11;;;;;;;7.03;1.13;;;;;;;;;;5052589;28;20127;-51
2022/08/04 12:56:38;;;;;;;2.28;1.10;;;;;;;;;;5052787;28;20032;-55
2022/08/04 12:59:08;;;;;;;1.80;1.00;;;;;;;;;;5052449;28;20040;-53
2022/08/04 13:01:35;;;;;;;5.60;1.23;;;;;;;;;;5067458;28;20112;-54
2022/08/04 13:04:14;;;;;;;1.67;1.00;;;;;;;;;;5052648;28;20089;-56
2022/08/04 13:06:41;;;;;;;3.03;1.10;;;;;;;;;;5052260;28;20049;-55
2022/08/04 13:09:09;;;;;;;7.25;1.25;;;;;;;;;;5051777;28;20033;-53
2022/08/04 13:11:39;;;;;;;1.63;0.95;;;;;;;;;;5051954;28;20063;-56
2022/08/04 13:14:06;;;;;;;3.88;1.30;;;;;;;;;;5051626;28;20029;-55
2022/08/04 13:16:33;;;;;;;2.65;1.05;;;;;;;;;;5045109;28;20028;-53
2022/08/04 13:18:59;;;;;;;3.70;1.10;;;;;;;;;;5052043;28;20399;-55
2022/08/04 13:21:27;;;;;;;5.07;1.10;;;;;;;;;;5051957;28;20021;-54
2022/08/04 13:23:57;;;;;;;2.00;1.00;;;;;;;;;;5050490;28;20021;-55
2022/08/04 13:26:24;;;;;;;3.58;1.50;;;;;;;;;;5047638;28;21057;-57
2022/08/04 13:28:51;;;;;;;1.40;1.00;;;;;;;;;;5048986;28;20025;-56
2022/08/04 13:31:19;;;;;;;1.58;1.20;;;;;;;;;;5051175;28;20037;-55
2022/08/04 13:33:47;;;;;;;5.45;1.30;;;;;;;;;;5052100;28;20064;-55
2022/08/04 13:36:13;;;;;;;2.72;1.20;;;;;;;;;;5043188;28;20365;-56
2022/08/04 13:38:59;;;;;;;6.75;1.30;;;;;;;;;;5039066;28;20068;-54
2022/08/04 13:41:27;;;;;;;7.47;1.45;;;;;;;;;;5049794;28;20024;-52
2022/08/04 13:43:58;;;;;;;1.10;1.00;;;;;;;;;;5048873;28;20033;-54
2022/08/04 13:46:26;;;;;;;6.80;1.08;;;;;;;;;;5051226;28;20047;-53
2022/08/04 13:48:52;;;;;;;3.90;1.02;;;;;;;;;;5051371;28;20086;-54
2022/08/04 13:51:20;;;;;;;3.97;1.23;;;;;;;;;;5045872;28;20433;-53
2022/08/04 13:53:54;;;;;;;1.17;0.82;;;;;;;;;;5051186;28;20388;-53
2022/08/04 13:56:21;;;;;;;2.20;1.40;;;;;;;;;;5051427;28;20029;-51
2022/08/04 13:58:49;;;;;;;3.17;1.20;;;;;;;;;;5051488;28;20029;-55
2022/08/04 14:01:18;;;;;;;2.05;1.10;;;;;;;;;;5047181;28;20108;-55
2022/08/04 14:03:51;;;;;;;1.98;1.23;;;;;;;;;;5066555;28;20025;-52
2022/08/04 14:06:23;;;;;;;1.58;1.23;;;;;;;;;;5050335;28;20039;-53
2022/08/04 14:08:53;;;;;;;3.33;1.20;;;;;;;;;;5050091;28;20036;-52
2022/08/04 14:11:21;;;;;;;2.90;1.10;;;;;;;;;;5050849;28;20074;-50
2022/08/04 14:13:48;;;;;;;4.90;1.10;;;;;;;;;;5050964;28;20094;-52
2022/08/04 14:16:15;;;;;;;3.90;1.45;;;;;;;;;;5049609;28;20407;-53
2022/08/04 14:18:41;;;;;;;1.30;1.20;;;;;;;;;;5042371;28;20025;-54
2022/08/04 14:21:10;;;;;;;1.33;1.10;;;;;;;;;;5031505;28;20017;-55
2022/08/04 14:23:39;;;;;;;3.25;1.30;;;;;;;;;;5046488;28;20590;-52
2022/08/04 14:26:15;;;;;;;2.85;1.35;;;;;;;;;;5051234;28;20028;-55
2022/08/04 14:28:41;;;;;;;5.45;1.40;;;;;;;;;;5051308;28;20039;-54
2022/08/04 14:31:09;;;;;;;3.05;1.20;;;;;;;;;;5051164;28;20029;-56
2022/08/04 14:33:42;;;;;;;4.97;1.50;;;;;;;;;;5051036;28;20031;-56
2022/08/04 14:36:08;;;;;;;6.72;1.70;;;;;;;;;;5064842;28;20113;-54
2022/08/04 14:38:45;;;;;;;4.75;1.60;;;;;;;;;;5037953;28;20392;-55
2022/08/04 14:41:12;;;;;;;3.83;1.60;;;;;;;;;;5042479;28;20100;-54
2022/08/04 14:43:45;;;;;;;17.67;2.08;;;;;;;;;;5031115;28;20101;-56
2022/08/04 14:46:11;;;;;;;4.80;1.30;;;;;;;;;;5044392;28;20075;-56
2022/08/04 14:48:38;;;;;;;3.72;1.27;;;;;;;;;;5051103;28;20462;-56